AEE756 LGAV-ENGM
Flight info
| Callsign | AEE756 |
|---|---|
| Flight time | N/A |
| Altitude | 31000 |
| Route | KRO T162 NEVRA UT162 KOROS DCT PEREN/N0460F320 UL863 EVIVI L863 OKANA DCT ESIRI DCT PARAK/N0454F340 DCT MAKAL DCT DESEN DCT GOSOT DCT SABAK DCT LUNIP |
| Aircraft | A321/M-SDE3FGHIRWY/LB1 |
Departure
| Time | 2026-05-08 06:06 |
|---|---|
| Airport | Athens Eleftherios Venizelos International Airport (LGAV) |
Arrival
| Time | N/A |
|---|---|
| Airport | Oslo-Gardermoen International Airport (ENGM) |
| Time | Latitude | Longitude | Altitude | Speed | Heading |
|---|---|---|---|---|---|
| 2026-05-08 05:40 | 37.94092 | 23.95418 | 300 ft | 0 kts | 218° |
| 2026-05-08 05:58 | 37.94100 | 23.95427 | 300 ft | 4 kts | 218° |
| 2026-05-08 05:58 | 37.94118 | 23.95445 | 302 ft | 2 kts | 218° |
| 2026-05-08 05:59 | 37.94139 | 23.95464 | 302 ft | 4 kts | 214° |
| 2026-05-08 05:59 | 37.94162 | 23.95480 | 300 ft | 4 kts | 191° |
| 2026-05-08 05:59 | 37.94180 | 23.95476 | 300 ft | 3 kts | 127° |
| 2026-05-08 05:59 | 37.94193 | 23.95454 | 300 ft | 0 kts | 127° |
| 2026-05-08 06:02 | 37.94192 | 23.95457 | 300 ft | 1 kts | 127° |
| 2026-05-08 06:02 | 37.94164 | 23.95503 | 301 ft | 11 kts | 127° |
| 2026-05-08 06:02 | 37.94104 | 23.95603 | 301 ft | 17 kts | 127° |
| 2026-05-08 06:02 | 37.94133 | 23.95735 | 301 ft | 20 kts | 40° |
| 2026-05-08 06:03 | 37.94254 | 23.95854 | 299 ft | 24 kts | 37° |
| 2026-05-08 06:03 | 37.94401 | 23.95997 | 299 ft | 27 kts | 37° |
| 2026-05-08 06:03 | 37.94561 | 23.96151 | 298 ft | 29 kts | 37° |
| 2026-05-08 06:03 | 37.94720 | 23.96302 | 300 ft | 27 kts | 36° |
| 2026-05-08 06:04 | 37.94873 | 23.96444 | 305 ft | 28 kts | 36° |
| 2026-05-08 06:04 | 37.95032 | 23.96593 | 302 ft | 29 kts | 37° |
| 2026-05-08 06:04 | 37.95186 | 23.96738 | 303 ft | 29 kts | 37° |
| 2026-05-08 06:04 | 37.95287 | 23.96858 | 303 ft | 15 kts | 84° |
| 2026-05-08 06:05 | 37.95262 | 23.96952 | 307 ft | 10 kts | 121° |
| 2026-05-08 06:05 | 37.95211 | 23.97019 | 310 ft | 12 kts | 164° |
| 2026-05-08 06:05 | 37.95123 | 23.96954 | 311 ft | 28 kts | 216° |
| 2026-05-08 06:05 | 37.94773 | 23.96623 | 303 ft | 96 kts | 217° |
| 2026-05-08 06:06 | 37.94079 | 23.95964 | 285 ft | 151 kts | 217° |
| 2026-05-08 06:06 | 37.93125 | 23.95056 | 407 ft | 181 kts | 217° |
| 2026-05-08 06:06 | 37.92080 | 23.94195 | 1077 ft | 179 kts | 208° |
| 2026-05-08 06:06 | 37.90994 | 23.93478 | 1822 ft | 174 kts | 206° |
| 2026-05-08 06:07 | 37.89911 | 23.92779 | 2329 ft | 180 kts | 207° |
| 2026-05-08 06:07 | 37.88749 | 23.92024 | 2589 ft | 195 kts | 207° |
| 2026-05-08 06:07 | 37.87520 | 23.91223 | 2819 ft | 210 kts | 207° |
| 2026-05-08 06:07 | 37.86145 | 23.90319 | 3043 ft | 227 kts | 207° |
| 2026-05-08 06:08 | 37.84731 | 23.89378 | 3622 ft | 229 kts | 207° |
| 2026-05-08 06:08 | 37.83323 | 23.88425 | 4303 ft | 230 kts | 208° |
| 2026-05-08 06:08 | 37.81932 | 23.87473 | 4917 ft | 232 kts | 208° |
| 2026-05-08 06:08 | 37.80496 | 23.86489 | 5468 ft | 237 kts | 209° |
| 2026-05-08 06:09 | 37.79037 | 23.85486 | 6030 ft | 241 kts | 210° |
| 2026-05-08 06:09 | 37.77515 | 23.84570 | 6584 ft | 246 kts | 195° |
| 2026-05-08 06:09 | 37.75791 | 23.84551 | 7071 ft | 256 kts | 166° |
| 2026-05-08 06:09 | 37.74214 | 23.85715 | 7366 ft | 278 kts | 134° |
| 2026-05-08 06:10 | 37.73161 | 23.87831 | 7778 ft | 289 kts | 121° |
| 2026-05-08 06:10 | 37.72226 | 23.90095 | 8326 ft | 293 kts | 120° |
| 2026-05-08 06:10 | 37.71293 | 23.92406 | 8898 ft | 296 kts | 120° |
| 2026-05-08 06:10 | 37.70356 | 23.94727 | 9470 ft | 299 kts | 120° |
| 2026-05-08 06:11 | 37.69400 | 23.97074 | 10046 ft | 302 kts | 120° |
| 2026-05-08 06:11 | 37.68412 | 23.99474 | 10300 ft | 317 kts | 120° |
| 2026-05-08 06:11 | 37.67363 | 24.02005 | 10426 ft | 335 kts | 120° |
| 2026-05-08 06:11 | 37.66253 | 24.04676 | 10539 ft | 351 kts | 120° |
| 2026-05-08 06:12 | 37.65090 | 24.07462 | 10659 ft | 367 kts | 120° |
| 2026-05-08 06:12 | 37.63874 | 24.10367 | 10778 ft | 381 kts | 119° |
| 2026-05-08 06:12 | 37.62626 | 24.13352 | 11110 ft | 388 kts | 119° |
| 2026-05-08 06:12 | 37.61369 | 24.16388 | 11537 ft | 392 kts | 117° |
| 2026-05-08 06:13 | 37.60480 | 24.19598 | 11959 ft | 397 kts | 102° |
| 2026-05-08 06:13 | 37.60266 | 24.23080 | 12394 ft | 402 kts | 87° |
| 2026-05-08 06:13 | 37.60783 | 24.26545 | 12822 ft | 405 kts | 71° |
| 2026-05-08 06:13 | 37.62009 | 24.29744 | 13260 ft | 407 kts | 55° |
| 2026-05-08 06:14 | 37.63850 | 24.32442 | 13708 ft | 408 kts | 39° |
| 2026-05-08 06:14 | 37.66192 | 24.34451 | 14142 ft | 408 kts | 24° |
| 2026-05-08 06:14 | 37.68836 | 24.35748 | 14512 ft | 409 kts | 17° |
| 2026-05-08 06:14 | 37.71534 | 24.36946 | 14909 ft | 412 kts | 17° |
| 2026-05-08 06:15 | 37.74245 | 24.38153 | 15300 ft | 414 kts | 16° |
| 2026-05-08 06:15 | 37.76962 | 24.39366 | 15697 ft | 416 kts | 16° |
| 2026-05-08 06:15 | 37.79685 | 24.40584 | 16114 ft | 418 kts | 16° |
| 2026-05-08 06:15 | 37.82432 | 24.41816 | 16505 ft | 420 kts | 16° |
| 2026-05-08 06:16 | 37.85194 | 24.43055 | 16905 ft | 422 kts | 16° |
| 2026-05-08 06:16 | 37.87968 | 24.44301 | 17251 ft | 425 kts | 16° |
| 2026-05-08 06:16 | 37.90765 | 24.45561 | 17609 ft | 428 kts | 16° |
| 2026-05-08 06:16 | 37.93565 | 24.46828 | 17951 ft | 430 kts | 16° |
| 2026-05-08 06:17 | 37.99237 | 24.49405 | 18631 ft | 435 kts | 15° |
| 2026-05-08 06:17 | 38.02102 | 24.50629 | 18954 ft | 435 kts | 13° |
| 2026-05-08 06:17 | 38.05004 | 24.51755 | 19279 ft | 436 kts | 12° |
| 2026-05-08 06:18 | 38.07923 | 24.52816 | 19592 ft | 437 kts | 11° |
| 2026-05-08 06:18 | 38.10842 | 24.53852 | 19890 ft | 439 kts | 11° |
| 2026-05-08 06:18 | 38.13790 | 24.54903 | 20189 ft | 441 kts | 11° |
| 2026-05-08 06:18 | 38.16744 | 24.55975 | 20516 ft | 443 kts | 11° |
| 2026-05-08 06:19 | 38.19707 | 24.57072 | 20835 ft | 444 kts | 11° |
| 2026-05-08 06:19 | 38.22678 | 24.58194 | 21143 ft | 446 kts | 11° |
| 2026-05-08 06:19 | 38.25653 | 24.59329 | 21445 ft | 448 kts | 11° |
| 2026-05-08 06:19 | 38.28613 | 24.60461 | 21693 ft | 451 kts | 11° |
| 2026-05-08 06:20 | 38.31620 | 24.61606 | 21976 ft | 453 kts | 11° |
| 2026-05-08 06:20 | 38.34643 | 24.62751 | 22265 ft | 454 kts | 11° |
| 2026-05-08 06:20 | 38.37680 | 24.63898 | 22564 ft | 456 kts | 10° |
| 2026-05-08 06:20 | 38.40725 | 24.65049 | 22852 ft | 458 kts | 10° |
| 2026-05-08 06:21 | 38.43785 | 24.66211 | 23136 ft | 459 kts | 10° |
| 2026-05-08 06:21 | 38.46884 | 24.67079 | 23405 ft | 452 kts | 359° |
| 2026-05-08 06:21 | 38.49978 | 24.66964 | 23652 ft | 440 kts | 343° |
| 2026-05-08 06:21 | 38.52881 | 24.65910 | 23883 ft | 433 kts | 334° |
| 2026-05-08 06:22 | 38.55706 | 24.64574 | 24112 ft | 434 kts | 333° |
| 2026-05-08 06:22 | 38.58538 | 24.63225 | 24346 ft | 435 kts | 333° |
| 2026-05-08 06:22 | 38.61375 | 24.61870 | 24589 ft | 436 kts | 333° |
| 2026-05-08 06:22 | 38.64194 | 24.60521 | 24815 ft | 437 kts | 333° |
| 2026-05-08 06:23 | 38.67055 | 24.59156 | 25060 ft | 439 kts | 333° |
| 2026-05-08 06:23 | 38.69927 | 24.57792 | 25231 ft | 442 kts | 334° |
| 2026-05-08 06:23 | 38.72819 | 24.56418 | 25414 ft | 444 kts | 333° |
| 2026-05-08 06:23 | 38.75719 | 24.55039 | 25618 ft | 445 kts | 333° |
| 2026-05-08 06:24 | 38.78623 | 24.53666 | 25837 ft | 447 kts | 334° |
| 2026-05-08 06:24 | 38.81569 | 24.52377 | 26036 ft | 449 kts | 336° |
| 2026-05-08 06:24 | 38.84556 | 24.51169 | 26246 ft | 450 kts | 336° |
| 2026-05-08 06:24 | 38.87562 | 24.50010 | 26436 ft | 452 kts | 337° |
| 2026-05-08 06:25 | 38.90580 | 24.48861 | 26634 ft | 452 kts | 337° |
| 2026-05-08 06:25 | 38.93592 | 24.47704 | 26873 ft | 452 kts | 336° |
| 2026-05-08 06:25 | 38.96594 | 24.46531 | 27081 ft | 451 kts | 336° |
| 2026-05-08 06:25 | 38.99547 | 24.45358 | 27311 ft | 450 kts | 336° |
| 2026-05-08 06:26 | 39.02533 | 24.44153 | 27568 ft | 449 kts | 336° |
| 2026-05-08 06:26 | 39.05508 | 24.42943 | 27821 ft | 448 kts | 336° |
| 2026-05-08 06:26 | 39.08471 | 24.41740 | 28087 ft | 446 kts | 336° |
| 2026-05-08 06:26 | 39.11437 | 24.40538 | 28342 ft | 445 kts | 336° |